sensor_id;sensor_type;location;lat;lon;timestamp;temperature;humidity
66328;DHT22;53133;52.862;6.602;2022-09-12T00:01:14;15.20;99.90
66328;DHT22;53133;52.862;6.602;2022-09-12T00:03:40;15.10;99.90
66328;DHT22;53133;52.862;6.602;2022-09-12T00:06:17;15.10;99.90
66328;DHT22;53133;52.862;6.602;2022-09-12T00:08:43;15.10;99.90
66328;DHT22;53133;52.862;6.602;2022-09-12T00:11:11;15.00;99.90
66328;DHT22;53133;52.862;6.602;2022-09-12T00:13:38;15.00;99.90
66328;DHT22;53133;52.862;6.602;2022-09-12T00:16:04;15.00;99.90
66328;DHT22;53133;52.862;6.602;2022-09-12T00:18:30;15.00;99.90
66328;DHT22;53133;52.862;6.602;2022-09-12T00:20:56;15.00;99.90
66328;DHT22;53133;52.862;6.602;2022-09-12T00:23:22;15.00;99.90
66328;DHT22;53133;52.862;6.602;2022-09-12T00:25:48;14.90;99.90
66328;DHT22;53133;52.862;6.602;2022-09-12T00:28:15;14.90;99.90
66328;DHT22;53133;52.862;6.602;2022-09-12T00:30:46;14.90;99.90
66328;DHT22;53133;52.862;6.602;2022-09-12T00:33:13;14.90;99.90
66328;DHT22;53133;52.862;6.602;2022-09-12T00:35:50;14.90;99.90
66328;DHT22;53133;52.862;6.602;2022-09-12T00:38:18;14.90;99.90
66328;DHT22;53133;52.862;6.602;2022-09-12T00:40:44;14.80;99.90
66328;DHT22;53133;52.862;6.602;2022-09-12T00:45:57;14.70;99.90
66328;DHT22;53133;52.862;6.602;2022-09-12T00:48:32;14.70;99.90
66328;DHT22;53133;52.862;6.602;2022-09-12T00:50:59;14.70;99.90
66328;DHT22;53133;52.862;6.602;2022-09-12T00:53:25;14.70;99.90
66328;DHT22;53133;52.862;6.602;2022-09-12T00:55:51;14.70;99.90
66328;DHT22;53133;52.862;6.602;2022-09-12T00:58:27;14.50;99.90
66328;DHT22;53133;52.862;6.602;2022-09-12T01:00:55;14.60;99.90
66328;DHT22;53133;52.862;6.602;2022-09-12T01:03:21;14.60;99.90
66328;DHT22;53133;52.862;6.602;2022-09-12T01:06:20;14.50;99.90
66328;DHT22;53133;52.862;6.602;2022-09-12T01:08:48;14.60;99.90
66328;DHT22;53133;52.862;6.602;2022-09-12T01:11:15;14.50;99.90
66328;DHT22;53133;52.862;6.602;2022-09-12T01:13:43;14.50;99.90
66328;DHT22;53133;52.862;6.602;2022-09-12T01:16:09;14.50;99.90
66328;DHT22;53133;52.862;6.602;2022-09-12T01:18:46;14.50;99.90
66328;DHT22;53133;52.862;6.602;2022-09-12T01:40:42;14.40;99.90
66328;DHT22;53133;52.862;6.602;2022-09-12T01:43:20;14.40;99.90
66328;DHT22;53133;52.862;6.602;2022-09-12T01:46:10;14.40;99.90
66328;DHT22;53133;52.862;6.602;2022-09-12T01:48:50;14.40;99.90
66328;DHT22;53133;52.862;6.602;2022-09-12T01:51:27;14.40;99.90
66328;DHT22;53133;52.862;6.602;2022-09-12T01:54:07;14.40;99.90
66328;DHT22;53133;52.862;6.602;2022-09-12T01:56:36;14.40;99.90
66328;DHT22;53133;52.862;6.602;2022-09-12T01:59:24;14.40;99.90
66328;DHT22;53133;52.862;6.602;2022-09-12T02:02:00;14.40;99.90
66328;DHT22;53133;52.862;6.602;2022-09-12T02:04:31;14.30;99.90
66328;DHT22;53133;52.862;6.602;2022-09-12T02:07:20;14.30;99.90
66328;DHT22;53133;52.862;6.602;2022-09-12T02:10:03;14.30;99.90
66328;DHT22;53133;52.862;6.602;2022-09-12T02:12:35;14.30;99.90
66328;DHT22;53133;52.862;6.602;2022-09-12T02:15:06;14.30;99.90
66328;DHT22;53133;52.862;6.602;2022-09-12T02:17:37;14.30;99.90
66328;DHT22;53133;52.862;6.602;2022-09-12T02:20:17;14.20;99.90
66328;DHT22;53133;52.862;6.602;2022-09-12T02:22:44;14.20;99.90
66328;DHT22;53133;52.862;6.602;2022-09-12T02:25:15;14.20;99.90
66328;DHT22;53133;52.862;6.602;2022-09-12T02:27:52;14.20;99.90
66328;DHT22;53133;52.862;6.602;2022-09-12T02:30:19;14.30;99.90
66328;DHT22;53133;52.862;6.602;2022-09-12T02:33:04;14.30;99.90
66328;DHT22;53133;52.862;6.602;2022-09-12T02:35:50;14.30;99.90
66328;DHT22;53133;52.862;6.602;2022-09-12T02:40:45;14.20;99.90
66328;DHT22;53133;52.862;6.602;2022-09-12T02:43:11;14.30;99.90
66328;DHT22;53133;52.862;6.602;2022-09-12T02:45:37;14.30;99.90
66328;DHT22;53133;52.862;6.602;2022-09-12T02:48:22;14.20;99.90
66328;DHT22;53133;52.862;6.602;2022-09-12T02:50:49;14.20;99.90
66328;DHT22;53133;52.862;6.602;2022-09-12T02:53:15;14.20;99.90
66328;DHT22;53133;52.862;6.602;2022-09-12T02:55:41;14.30;99.90
66328;DHT22;53133;52.862;6.602;2022-09-12T02:58:11;14.20;99.90
66328;DHT22;53133;52.862;6.602;2022-09-12T03:06:32;14.20;99.90
66328;DHT22;53133;52.862;6.602;2022-09-12T03:09:19;14.20;99.90
66328;DHT22;53133;52.862;6.602;2022-09-12T03:12:11;14.20;99.90
66328;DHT22;53133;52.862;6.602;2022-09-12T03:25:46;14.10;99.90
66328;DHT22;53133;52.862;6.602;2022-09-12T03:28:16;14.10;99.90
66328;DHT22;53133;52.862;6.602;2022-09-12T03:30:45;14.20;99.90
66328;DHT22;53133;52.862;6.602;2022-09-12T03:33:13;14.20;99.90
66328;DHT22;53133;52.862;6.602;2022-09-12T03:35:39;14.10;99.90
66328;DHT22;53133;52.862;6.602;2022-09-12T03:38:04;14.10;99.90
66328;DHT22;53133;52.862;6.602;2022-09-12T03:40:35;14.10;99.90
66328;DHT22;53133;52.862;6.602;2022-09-12T03:43:02;14.10;99.90
66328;DHT22;53133;52.862;6.602;2022-09-12T03:45:28;14.00;99.90
66328;DHT22;53133;52.862;6.602;2022-09-12T03:47:54;14.00;99.90
66328;DHT22;53133;52.862;6.602;2022-09-12T03:50:19;14.00;99.90
66328;DHT22;53133;52.862;6.602;2022-09-12T03:52:45;14.00;99.90
66328;DHT22;53133;52.862;6.602;2022-09-12T03:55:11;14.00;99.90
66328;DHT22;53133;52.862;6.602;2022-09-12T03:57:37;14.00;99.90
66328;DHT22;53133;52.862;6.602;2022-09-12T04:00:04;14.00;99.90
66328;DHT22;53133;52.862;6.602;2022-09-12T04:02:30;14.00;99.90
66328;DHT22;53133;52.862;6.602;2022-09-12T04:04:55;14.10;99.90
66328;DHT22;53133;52.862;6.602;2022-09-12T04:07:21;14.10;99.90
66328;DHT22;53133;52.862;6.602;2022-09-12T04:09:46;14.20;99.90
66328;DHT22;53133;52.862;6.602;2022-09-12T04:12:12;14.10;99.90
66328;DHT22;53133;52.862;6.602;2022-09-12T04:14:38;14.10;99.90
66328;DHT22;53133;52.862;6.602;2022-09-12T04:17:04;14.20;99.90
66328;DHT22;53133;52.862;6.602;2022-09-12T04:19:30;14.20;99.90
66328;DHT22;53133;52.862;6.602;2022-09-12T04:21:55;14.20;99.90
66328;DHT22;53133;52.862;6.602;2022-09-12T04:24:21;14.20;99.90
66328;DHT22;53133;52.862;6.602;2022-09-12T04:26:46;14.20;99.90
66328;DHT22;53133;52.862;6.602;2022-09-12T04:29:12;14.10;99.90
66328;DHT22;53133;52.862;6.602;2022-09-12T04:31:39;14.10;99.90
66328;DHT22;53133;52.862;6.602;2022-09-12T04:34:05;14.00;99.90
66328;DHT22;53133;52.862;6.602;2022-09-12T04:36:31;14.00;99.90
66328;DHT22;53133;52.862;6.602;2022-09-12T04:38:59;14.00;99.90
66328;DHT22;53133;52.862;6.602;2022-09-12T04:41:29;14.00;99.90
66328;DHT22;53133;52.862;6.602;2022-09-12T04:44:00;14.00;99.90
66328;DHT22;53133;52.862;6.602;2022-09-12T04:46:30;14.00;99.90
66328;DHT22;53133;52.862;6.602;2022-09-12T04:48:56;13.90;99.90
66328;DHT22;53133;52.862;6.602;2022-09-12T04:51:34;13.90;99.90
66328;DHT22;53133;52.862;6.602;2022-09-12T04:54:15;13.90;99.90
66328;DHT22;53133;52.862;6.602;2022-09-12T04:56:42;13.90;99.90
66328;DHT22;53133;52.862;6.602;2022-09-12T04:59:10;13.90;99.90
66328;DHT22;53133;52.862;6.602;2022-09-12T05:01:36;13.90;99.90
66328;DHT22;53133;52.862;6.602;2022-09-12T05:04:02;14.00;99.90
66328;DHT22;53133;52.862;6.602;2022-09-12T05:06:33;14.00;99.90
66328;DHT22;53133;52.862;6.602;2022-09-12T05:09:00;14.00;99.90
66328;DHT22;53133;52.862;6.602;2022-09-12T05:11:29;14.10;99.90
66328;DHT22;53133;52.862;6.602;2022-09-12T05:13:56;14.10;99.90
66328;DHT22;53133;52.862;6.602;2022-09-12T05:16:23;14.10;99.90
66328;DHT22;53133;52.862;6.602;2022-09-12T05:18:49;14.20;99.90
66328;DHT22;53133;52.862;6.602;2022-09-12T05:21:17;14.20;99.90
66328;DHT22;53133;52.862;6.602;2022-09-12T05:23:43;14.30;99.90
66328;DHT22;53133;52.862;6.602;2022-09-12T05:26:15;14.40;99.90
66328;DHT22;53133;52.862;6.602;2022-09-12T05:28:41;14.40;99.90
66328;DHT22;53133;52.862;6.602;2022-09-12T05:31:15;14.40;99.90
66328;DHT22;53133;52.862;6.602;2022-09-12T05:33:43;14.50;99.90
66328;DHT22;53133;52.862;6.602;2022-09-12T05:36:12;14.60;99.90
66328;DHT22;53133;52.862;6.602;2022-09-12T05:38:38;14.60;99.90
66328;DHT22;53133;52.862;6.602;2022-09-12T05:41:10;14.60;99.90
66328;DHT22;53133;52.862;6.602;2022-09-12T05:43:37;14.70;99.90
66328;DHT22;53133;52.862;6.602;2022-09-12T05:46:15;14.70;99.90
66328;DHT22;53133;52.862;6.602;2022-09-12T05:48:42;14.80;99.90
66328;DHT22;53133;52.862;6.602;2022-09-12T05:51:11;14.80;99.90
66328;DHT22;53133;52.862;6.602;2022-09-12T05:53:38;14.80;99.90
66328;DHT22;53133;52.862;6.602;2022-09-12T05:56:15;14.80;99.90
66328;DHT22;53133;52.862;6.602;2022-09-12T05:58:43;14.90;99.90
66328;DHT22;53133;52.862;6.602;2022-09-12T06:01:14;14.90;99.90
66328;DHT22;53133;52.862;6.602;2022-09-12T06:03:45;14.90;99.90
66328;DHT22;53133;52.862;6.602;2022-09-12T06:06:12;15.00;99.90
66328;DHT22;53133;52.862;6.602;2022-09-12T06:08:39;15.00;99.90
66328;DHT22;53133;52.862;6.602;2022-09-12T06:11:06;15.00;99.90
66328;DHT22;53133;52.862;6.602;2022-09-12T06:13:34;15.00;99.90
66328;DHT22;53133;52.862;6.602;2022-09-12T06:16:05;15.00;99.90
66328;DHT22;53133;52.862;6.602;2022-09-12T06:18:33;15.00;99.90
66328;DHT22;53133;52.862;6.602;2022-09-12T06:21:04;15.00;99.90
66328;DHT22;53133;52.862;6.602;2022-09-12T06:23:30;15.10;99.90
66328;DHT22;53133;52.862;6.602;2022-09-12T06:25:56;15.10;99.90
66328;DHT22;53133;52.862;6.602;2022-09-12T06:28:21;15.10;99.90
66328;DHT22;53133;52.862;6.602;2022-09-12T06:30:47;15.10;99.90
66328;DHT22;53133;52.862;6.602;2022-09-12T06:33:14;15.10;99.90
66328;DHT22;53133;52.862;6.602;2022-09-12T06:35:40;15.10;99.90
66328;DHT22;53133;52.862;6.602;2022-09-12T06:38:05;15.20;99.90
66328;DHT22;53133;52.862;6.602;2022-09-12T06:40:32;15.20;99.90
66328;DHT22;53133;52.862;6.602;2022-09-12T06:42:58;15.20;99.90
66328;DHT22;53133;52.862;6.602;2022-09-12T06:45:23;15.20;99.90
66328;DHT22;53133;52.862;6.602;2022-09-12T06:47:50;15.30;99.90
66328;DHT22;53133;52.862;6.602;2022-09-12T06:50:16;15.30;99.90
66328;DHT22;53133;52.862;6.602;2022-09-12T06:52:41;15.30;99.90
66328;DHT22;53133;52.862;6.602;2022-09-12T06:55:09;15.30;99.90
66328;DHT22;53133;52.862;6.602;2022-09-12T06:57:34;15.30;99.90
66328;DHT22;53133;52.862;6.602;2022-09-12T07:00:07;15.30;99.90
66328;DHT22;53133;52.862;6.602;2022-09-12T07:02:32;15.30;99.90
66328;DHT22;53133;52.862;6.602;2022-09-12T07:04:58;15.40;99.90
66328;DHT22;53133;52.862;6.602;2022-09-12T07:07:23;15.40;99.90
66328;DHT22;53133;52.862;6.602;2022-09-12T07:09:49;15.40;99.90
66328;DHT22;53133;52.862;6.602;2022-09-12T07:12:15;15.50;99.90
66328;DHT22;53133;52.862;6.602;2022-09-12T07:14:40;15.50;99.90
66328;DHT22;53133;52.862;6.602;2022-09-12T07:17:06;15.50;99.90
66328;DHT22;53133;52.862;6.602;2022-09-12T07:19:33;15.50;99.90
66328;DHT22;53133;52.862;6.602;2022-09-12T07:21:59;15.50;99.90
66328;DHT22;53133;52.862;6.602;2022-09-12T07:24:25;15.50;99.90
66328;DHT22;53133;52.862;6.602;2022-09-12T07:26:51;15.60;99.90
66328;DHT22;53133;52.862;6.602;2022-09-12T07:29:16;15.60;99.90
66328;DHT22;53133;52.862;6.602;2022-09-12T07:31:42;15.60;99.90
66328;DHT22;53133;52.862;6.602;2022-09-12T07:34:08;15.70;99.90
66328;DHT22;53133;52.862;6.602;2022-09-12T07:36:34;15.70;99.90
66328;DHT22;53133;52.862;6.602;2022-09-12T07:38:59;15.70;99.90
66328;DHT22;53133;52.862;6.602;2022-09-12T07:41:27;15.70;99.90
66328;DHT22;53133;52.862;6.602;2022-09-12T07:43:54;15.80;99.90
66328;DHT22;53133;52.862;6.602;2022-09-12T07:46:21;15.90;99.90
66328;DHT22;53133;52.862;6.602;2022-09-12T07:48:55;15.90;99.90
66328;DHT22;53133;52.862;6.602;2022-09-12T07:51:21;16.00;99.90
66328;DHT22;53133;52.862;6.602;2022-09-12T07:53:47;16.00;99.90
66328;DHT22;53133;52.862;6.602;2022-09-12T07:56:14;16.10;99.90
66328;DHT22;53133;52.862;6.602;2022-09-12T07:58:41;16.10;99.90
66328;DHT22;53133;52.862;6.602;2022-09-12T08:01:15;16.20;99.90
66328;DHT22;53133;52.862;6.602;2022-09-12T08:03:42;16.20;99.90
66328;DHT22;53133;52.862;6.602;2022-09-12T08:06:10;16.20;99.90
66328;DHT22;53133;52.862;6.602;2022-09-12T08:08:36;16.30;99.90
66328;DHT22;53133;52.862;6.602;2022-09-12T08:11:09;16.20;99.90
66328;DHT22;53133;52.862;6.602;2022-09-12T08:13:36;16.30;99.90
66328;DHT22;53133;52.862;6.602;2022-09-12T08:16:05;16.30;99.90
66328;DHT22;53133;52.862;6.602;2022-09-12T08:18:33;16.40;99.90
66328;DHT22;53133;52.862;6.602;2022-09-12T08:21:05;16.40;99.90
66328;DHT22;53133;52.862;6.602;2022-09-12T08:23:31;16.40;99.90
66328;DHT22;53133;52.862;6.602;2022-09-12T08:25:58;16.50;99.90
66328;DHT22;53133;52.862;6.602;2022-09-12T08:28:26;16.50;99.90
66328;DHT22;53133;52.862;6.602;2022-09-12T08:30:52;16.50;99.90
66328;DHT22;53133;52.862;6.602;2022-09-12T08:33:19;16.60;99.90
66328;DHT22;53133;52.862;6.602;2022-09-12T08:35:45;16.60;99.90
66328;DHT22;53133;52.862;6.602;2022-09-12T08:38:11;16.60;99.90
66328;DHT22;53133;52.862;6.602;2022-09-12T08:40:52;16.70;99.90
66328;DHT22;53133;52.862;6.602;2022-09-12T08:46:14;16.80;99.90
66328;DHT22;53133;52.862;6.602;2022-09-12T08:48:44;16.90;99.90
66328;DHT22;53133;52.862;6.602;2022-09-12T08:51:13;16.90;99.90
66328;DHT22;53133;52.862;6.602;2022-09-12T08:53:40;17.00;99.90
66328;DHT22;53133;52.862;6.602;2022-09-12T08:56:07;17.00;99.90
66328;DHT22;53133;52.862;6.602;2022-09-12T08:58:39;17.10;99.90
66328;DHT22;53133;52.862;6.602;2022-09-12T09:01:21;17.20;99.90
66328;DHT22;53133;52.862;6.602;2022-09-12T09:15:12;17.50;99.90
66328;DHT22;53133;52.862;6.602;2022-09-12T09:17:45;17.60;99.90
66328;DHT22;53133;52.862;6.602;2022-09-12T09:20:41;17.60;99.90
66328;DHT22;53133;52.862;6.602;2022-09-12T09:26:16;17.70;99.90
66328;DHT22;53133;52.862;6.602;2022-09-12T09:28:48;17.80;99.90
66328;DHT22;53133;52.862;6.602;2022-09-12T09:31:17;17.80;99.90
66328;DHT22;53133;52.862;6.602;2022-09-12T09:33:46;17.80;99.90
66328;DHT22;53133;52.862;6.602;2022-09-12T09:39:48;17.90;99.90
66328;DHT22;53133;52.862;6.602;2022-09-12T09:42:43;18.00;99.90
66328;DHT22;53133;52.862;6.602;2022-09-12T09:45:19;18.00;99.90
66328;DHT22;53133;52.862;6.602;2022-09-12T09:50:37;18.10;99.90
66328;DHT22;53133;52.862;6.602;2022-09-12T09:53:03;18.10;99.90
66328;DHT22;53133;52.862;6.602;2022-09-12T09:55:41;18.20;99.90
66328;DHT22;53133;52.862;6.602;2022-09-12T09:58:08;18.30;99.90
66328;DHT22;53133;52.862;6.602;2022-09-12T10:00:35;18.40;99.90
66328;DHT22;53133;52.862;6.602;2022-09-12T10:05:57;18.50;99.90
66328;DHT22;53133;52.862;6.602;2022-09-12T10:08:34;18.50;99.90
66328;DHT22;53133;52.862;6.602;2022-09-12T10:11:05;18.60;99.90
66328;DHT22;53133;52.862;6.602;2022-09-12T10:13:37;18.70;99.90
66328;DHT22;53133;52.862;6.602;2022-09-12T10:16:15;18.70;99.90
66328;DHT22;53133;52.862;6.602;2022-09-12T10:18:43;18.80;99.90
66328;DHT22;53133;52.862;6.602;2022-09-12T10:24:23;18.80;99.80
66328;DHT22;53133;52.862;6.602;2022-09-12T10:27:15;18.80;99.70
66328;DHT22;53133;52.862;6.602;2022-09-12T10:30:06;18.90;98.90
66328;DHT22;53133;52.862;6.602;2022-09-12T10:32:41;18.90;98.80
66328;DHT22;53133;52.862;6.602;2022-09-12T10:35:20;19.00;98.50
66328;DHT22;53133;52.862;6.602;2022-09-12T10:40:28;19.00;98.40
66328;DHT22;53133;52.862;6.602;2022-09-12T10:42:57;19.10;98.60
66328;DHT22;53133;52.862;6.602;2022-09-12T10:45:31;19.20;98.50
66328;DHT22;53133;52.862;6.602;2022-09-12T10:47:59;19.20;98.50
66328;DHT22;53133;52.862;6.602;2022-09-12T10:50:30;19.30;98.40
66328;DHT22;53133;52.862;6.602;2022-09-12T10:53:19;19.30;98.30
66328;DHT22;53133;52.862;6.602;2022-09-12T10:56:11;19.30;97.90
66328;DHT22;53133;52.862;6.602;2022-09-12T11:04:21;19.40;97.30
66328;DHT22;53133;52.862;6.602;2022-09-12T11:09:44;19.50;97.20
66328;DHT22;53133;52.862;6.602;2022-09-12T11:12:37;19.60;97.10
66328;DHT22;53133;52.862;6.602;2022-09-12T11:15:20;19.80;96.70
66328;DHT22;53133;52.862;6.602;2022-09-12T11:17:54;19.80;96.30
66328;DHT22;53133;52.862;6.602;2022-09-12T11:26:16;19.80;96.00
66328;DHT22;53133;52.862;6.602;2022-09-12T11:28:51;19.90;95.90
66328;DHT22;53133;52.862;6.602;2022-09-12T11:33:59;20.10;95.60
66328;DHT22;53133;52.862;6.602;2022-09-12T11:36:34;20.20;95.50
66328;DHT22;53133;52.862;6.602;2022-09-12T11:39:26;20.30;95.20
66328;DHT22;53133;52.862;6.602;2022-09-12T11:41:57;20.40;95.30
66328;DHT22;53133;52.862;6.602;2022-09-12T11:44:28;20.40;95.20
66328;DHT22;53133;52.862;6.602;2022-09-12T11:47:00;20.40;95.20
66328;DHT22;53133;52.862;6.602;2022-09-12T11:49:40;20.40;95.10
66328;DHT22;53133;52.862;6.602;2022-09-12T11:52:16;20.40;95.40
66328;DHT22;53133;52.862;6.602;2022-09-12T11:55:04;20.40;95.10
66328;DHT22;53133;52.862;6.602;2022-09-12T11:57:42;20.40;94.60
66328;DHT22;53133;52.862;6.602;2022-09-12T12:00:31;20.50;94.80
66328;DHT22;53133;52.862;6.602;2022-09-12T12:08:18;20.70;94.30
66328;DHT22;53133;52.862;6.602;2022-09-12T12:10:55;20.80;94.70
66328;DHT22;53133;52.862;6.602;2022-09-12T12:13:28;20.80;94.00
66328;DHT22;53133;52.862;6.602;2022-09-12T12:18:54;20.80;93.60
66328;DHT22;53133;52.862;6.602;2022-09-12T12:21:36;20.80;93.60
66328;DHT22;53133;52.862;6.602;2022-09-12T12:26:40;20.90;94.20
66328;DHT22;53133;52.862;6.602;2022-09-12T12:34:45;21.00;93.30
66328;DHT22;53133;52.862;6.602;2022-09-12T12:47:46;21.20;93.00
66328;DHT22;53133;52.862;6.602;2022-09-12T12:50:22;21.20;92.80
66328;DHT22;53133;52.862;6.602;2022-09-12T12:52:58;21.30;92.30
66328;DHT22;53133;52.862;6.602;2022-09-12T12:57:59;21.30;91.60
66328;DHT22;53133;52.862;6.602;2022-09-12T13:00:32;21.30;92.10
66328;DHT22;53133;52.862;6.602;2022-09-12T13:05:49;21.50;91.30
66328;DHT22;53133;52.862;6.602;2022-09-12T13:10:49;21.60;91.20
66328;DHT22;53133;52.862;6.602;2022-09-12T13:13:22;21.60;90.70
66328;DHT22;53133;52.862;6.602;2022-09-12T13:15:50;21.60;90.90
66328;DHT22;53133;52.862;6.602;2022-09-12T13:18:24;21.70;91.10
66328;DHT22;53133;52.862;6.602;2022-09-12T13:21:27;21.80;90.00
66328;DHT22;53133;52.862;6.602;2022-09-12T13:24:12;21.80;90.00
66328;DHT22;53133;52.862;6.602;2022-09-12T13:26:42;21.80;90.20
66328;DHT22;53133;52.862;6.602;2022-09-12T13:29:27;21.80;90.40
66328;DHT22;53133;52.862;6.602;2022-09-12T13:31:57;21.80;89.00
66328;DHT22;53133;52.862;6.602;2022-09-12T13:34:32;21.80;90.00
66328;DHT22;53133;52.862;6.602;2022-09-12T13:42:43;21.90;90.00
66328;DHT22;53133;52.862;6.602;2022-09-12T13:45:20;22.00;90.10
66328;DHT22;53133;52.862;6.602;2022-09-12T13:47:52;22.00;89.10
66328;DHT22;53133;52.862;6.602;2022-09-12T13:50:22;22.00;89.40
66328;DHT22;53133;52.862;6.602;2022-09-12T13:52:56;21.90;88.90
66328;DHT22;53133;52.862;6.602;2022-09-12T13:55:44;21.90;89.90
66328;DHT22;53133;52.862;6.602;2022-09-12T13:58:24;22.00;90.00
66328;DHT22;53133;52.862;6.602;2022-09-12T14:03:46;22.00;89.70
66328;DHT22;53133;52.862;6.602;2022-09-12T14:06:48;22.00;89.40
66328;DHT22;53133;52.862;6.602;2022-09-12T14:09:26;22.00;89.50
66328;DHT22;53133;52.862;6.602;2022-09-12T14:11:54;22.00;90.10
66328;DHT22;53133;52.862;6.602;2022-09-12T14:14:40;22.00;90.20
66328;DHT22;53133;52.862;6.602;2022-09-12T14:17:21;22.00;89.50
66328;DHT22;53133;52.862;6.602;2022-09-12T14:19:48;22.00;89.20
66328;DHT22;53133;52.862;6.602;2022-09-12T14:22:14;22.00;89.30
66328;DHT22;53133;52.862;6.602;2022-09-12T14:24:47;22.00;88.60
66328;DHT22;53133;52.862;6.602;2022-09-12T14:27:22;22.10;88.60
66328;DHT22;53133;52.862;6.602;2022-09-12T14:30:04;22.10;88.70
66328;DHT22;53133;52.862;6.602;2022-09-12T14:32:32;22.10;89.10
66328;DHT22;53133;52.862;6.602;2022-09-12T14:37:36;22.20;89.10
66328;DHT22;53133;52.862;6.602;2022-09-12T14:40:03;22.20;88.40
66328;DHT22;53133;52.862;6.602;2022-09-12T14:42:30;22.20;87.50
66328;DHT22;53133;52.862;6.602;2022-09-12T14:44:57;22.20;87.30
66328;DHT22;53133;52.862;6.602;2022-09-12T14:47:27;22.20;88.20
66328;DHT22;53133;52.862;6.602;2022-09-12T14:49:57;22.20;88.00
66328;DHT22;53133;52.862;6.602;2022-09-12T14:52:33;22.20;87.80
66328;DHT22;53133;52.862;6.602;2022-09-12T14:57:35;22.20;87.00
66328;DHT22;53133;52.862;6.602;2022-09-12T15:02:42;22.20;85.90
66328;DHT22;53133;52.862;6.602;2022-09-12T15:07:50;22.20;86.20
66328;DHT22;53133;52.862;6.602;2022-09-12T15:10:28;22.10;86.00
66328;DHT22;53133;52.862;6.602;2022-09-12T15:15:30;22.10;86.30
66328;DHT22;53133;52.862;6.602;2022-09-12T15:17:56;22.10;86.60
66328;DHT22;53133;52.862;6.602;2022-09-12T15:20:21;22.10;87.10
66328;DHT22;53133;52.862;6.602;2022-09-12T15:22:48;22.10;86.40
66328;DHT22;53133;52.862;6.602;2022-09-12T15:25:14;22.10;85.70
66328;DHT22;53133;52.862;6.602;2022-09-12T15:27:39;22.10;86.00
66328;DHT22;53133;52.862;6.602;2022-09-12T15:30:06;22.10;86.60
66328;DHT22;53133;52.862;6.602;2022-09-12T15:32:33;22.10;87.00
66328;DHT22;53133;52.862;6.602;2022-09-12T15:34:59;22.10;86.90
66328;DHT22;53133;52.862;6.602;2022-09-12T15:37:24;22.10;86.60
66328;DHT22;53133;52.862;6.602;2022-09-12T15:39:50;22.10;86.40
66328;DHT22;53133;52.862;6.602;2022-09-12T15:42:17;22.10;86.30
66328;DHT22;53133;52.862;6.602;2022-09-12T15:44:47;22.00;86.00
66328;DHT22;53133;52.862;6.602;2022-09-12T15:47:12;22.00;86.30
66328;DHT22;53133;52.862;6.602;2022-09-12T15:49:39;22.00;86.80
66328;DHT22;53133;52.862;6.602;2022-09-12T15:52:06;22.00;87.10
66328;DHT22;53133;52.862;6.602;2022-09-12T15:54:32;22.00;86.90
66328;DHT22;53133;52.862;6.602;2022-09-12T15:56:58;22.00;86.70
66328;DHT22;53133;52.862;6.602;2022-09-12T15:59:23;22.00;86.40
66328;DHT22;53133;52.862;6.602;2022-09-12T16:01:49;22.00;86.20
66328;DHT22;53133;52.862;6.602;2022-09-12T16:04:21;22.00;86.80
66328;DHT22;53133;52.862;6.602;2022-09-12T16:06:48;21.90;86.60
66328;DHT22;53133;52.862;6.602;2022-09-12T16:09:14;21.90;86.80
66328;DHT22;53133;52.862;6.602;2022-09-12T16:11:40;21.90;87.00
66328;DHT22;53133;52.862;6.602;2022-09-12T16:14:06;21.90;86.80
66328;DHT22;53133;52.862;6.602;2022-09-12T16:16:32;21.80;86.60
66328;DHT22;53133;52.862;6.602;2022-09-12T16:18:58;21.80;86.60
66328;DHT22;53133;52.862;6.602;2022-09-12T16:21:23;21.80;86.70
66328;DHT22;53133;52.862;6.602;2022-09-12T16:23:49;21.80;86.80
66328;DHT22;53133;52.862;6.602;2022-09-12T16:26:16;21.80;86.50
66328;DHT22;53133;52.862;6.602;2022-09-12T16:28:41;21.80;86.50
66328;DHT22;53133;52.862;6.602;2022-09-12T16:31:11;21.70;86.30
66328;DHT22;53133;52.862;6.602;2022-09-12T16:33:38;21.70;86.80
66328;DHT22;53133;52.862;6.602;2022-09-12T16:36:12;21.70;87.20
66328;DHT22;53133;52.862;6.602;2022-09-12T16:38:46;21.70;87.60
66328;DHT22;53133;52.862;6.602;2022-09-12T16:41:13;21.70;88.20
66328;DHT22;53133;52.862;6.602;2022-09-12T16:43:39;21.70;88.40
66328;DHT22;53133;52.862;6.602;2022-09-12T16:46:13;21.70;88.70
66328;DHT22;53133;52.862;6.602;2022-09-12T16:48:44;21.60;88.90
66328;DHT22;53133;52.862;6.602;2022-09-12T16:51:12;21.60;89.40
66328;DHT22;53133;52.862;6.602;2022-09-12T16:53:38;21.60;89.50
66328;DHT22;53133;52.862;6.602;2022-09-12T16:56:04;21.60;89.60
66328;DHT22;53133;52.862;6.602;2022-09-12T16:58:38;21.60;89.40
66328;DHT22;53133;52.862;6.602;2022-09-12T17:03:32;21.50;89.80
66328;DHT22;53133;52.862;6.602;2022-09-12T17:06:04;21.60;90.10
66328;DHT22;53133;52.862;6.602;2022-09-12T17:08:32;21.50;90.10
66328;DHT22;53133;52.862;6.602;2022-09-12T17:11:03;21.50;90.10
66328;DHT22;53133;52.862;6.602;2022-09-12T17:13:29;21.50;90.20
66328;DHT22;53133;52.862;6.602;2022-09-12T17:15:55;21.50;90.30
66328;DHT22;53133;52.862;6.602;2022-09-12T17:18:21;21.40;90.30
66328;DHT22;53133;52.862;6.602;2022-09-12T17:20:47;21.40;90.30
66328;DHT22;53133;52.862;6.602;2022-09-12T17:23:13;21.40;90.40
66328;DHT22;53133;52.862;6.602;2022-09-12T17:25:39;21.30;90.50
66328;DHT22;53133;52.862;6.602;2022-09-12T17:28:05;21.30;90.50
66328;DHT22;53133;52.862;6.602;2022-09-12T17:30:34;21.30;90.90
66328;DHT22;53133;52.862;6.602;2022-09-12T17:33:00;21.20;91.10
66328;DHT22;53133;52.862;6.602;2022-09-12T17:35:26;21.20;91.00
66328;DHT22;53133;52.862;6.602;2022-09-12T17:37:52;21.10;91.00
66328;DHT22;53133;52.862;6.602;2022-09-12T17:40:18;21.10;91.20
66328;DHT22;53133;52.862;6.602;2022-09-12T17:42:43;21.10;91.10
66328;DHT22;53133;52.862;6.602;2022-09-12T17:45:10;21.10;91.10
66328;DHT22;53133;52.862;6.602;2022-09-12T17:47:39;21.10;91.10
66328;DHT22;53133;52.862;6.602;2022-09-12T17:50:05;21.00;91.20
66328;DHT22;53133;52.862;6.602;2022-09-12T17:52:31;21.00;91.10
66328;DHT22;53133;52.862;6.602;2022-09-12T17:54:57;21.00;91.20
66328;DHT22;53133;52.862;6.602;2022-09-12T17:57:22;20.90;91.40
66328;DHT22;53133;52.862;6.602;2022-09-12T17:59:48;20.90;91.40
66328;DHT22;53133;52.862;6.602;2022-09-12T18:02:14;20.80;91.40
66328;DHT22;53133;52.862;6.602;2022-09-12T18:04:42;20.80;91.40
66328;DHT22;53133;52.862;6.602;2022-09-12T18:07:14;20.70;91.40
66328;DHT22;53133;52.862;6.602;2022-09-12T18:09:40;20.70;91.40
66328;DHT22;53133;52.862;6.602;2022-09-12T18:12:07;20.60;91.60
66328;DHT22;53133;52.862;6.602;2022-09-12T18:14:33;20.60;91.80
66328;DHT22;53133;52.862;6.602;2022-09-12T18:16:59;20.60;92.00
66328;DHT22;53133;52.862;6.602;2022-09-12T18:19:26;20.50;92.00